Suomigracht — PHBT — position and weather

sailwx.info

Track history (hours):
 
Tides and Currents Weather Stations Pressure Air Temp Water Temp Dewpoint Dewpoint Depression Visibility Wind Speed Wind Dir Waves Ship Positions

Suomigracht

Last reported at 2015-Jul-27 13:34 UTC. Time now 2015-Jul-28 05:47 UTC.
Position N 38°28' E 008°20'.

Length 173 m; beam 26 m.

Type: Cargo ship. MMSI: 246100000.

Date/timePositionNaut miles runAvg speedWind from/ knotsBaromVisibWave heightAir tempDewpointWater temp
2015-Jul-27 13:34N 38°28' E 008°20'1414.1
2015-Jul-27 12:33N 38°22' E 008°36'16214.8
2015-Jul-27 01:33N 37°14' E 011°43'1616.2
2015-Jul-27 00:33N 37°07' E 012°01'1616.4
2015-Jul-26 23:32N 37°01' E 012°21'1616.4
2015-Jul-26 22:33N 36°56' E 012°40'1616.0
2015-Jul-26 21:33N 36°51' E 012°59'1615.9
2015-Jul-26 20:33N 36°46' E 013°18'1615.8
2015-Jul-26 19:33N 36°41' E 013°37'1615.8
2015-Jul-26 18:34N 36°36' E 013°55'1616.1
2015-Jul-26 17:34N 36°31' E 014°14'1615.8
2015-Jul-26 16:33N 36°27' E 014°33'1816.5
2015-Jul-26 15:27N 36°32' E 014°55'1516.3
2015-Jul-26 14:34N 36°35' E 015°13'1616.2
2015-Jul-26 13:33N 36°46' E 015°28'1716.9
2015-Jul-26 12:33N 36°59' E 015°42'4016.8
2015-Jul-26 10:10N 37°30' E 016°14'  
2015-Jul-19 14:31N 44°28' E 012°15'  
Track history (hours):
 
Tides and Currents Weather Stations Pressure Air Temp Water Temp Dewpoint Dewpoint Depression Visibility Wind Speed Wind Dir Waves Ship Positions

Suomigracht

Last reported at 2015-Jul-27 13:34 UTC. Time now 2015-Jul-28 05:47 UTC.
Position N 38°28' E 008°20'.

Length 173 m; beam 26 m.

Type: Cargo ship. MMSI: 246100000.

Date/timePositionNaut miles runAvg speedWind from/ knotsBaromVisibWave heightAir tempDewpointWater temp
2015-Jul-27 13:34N 38°28' E 008°20'1414.1
2015-Jul-27 12:33N 38°22' E 008°36'16214.8
2015-Jul-27 01:33N 37°14' E 011°43'1616.2
2015-Jul-27 00:33N 37°07' E 012°01'1616.4
2015-Jul-26 23:32N 37°01' E 012°21'1616.4
2015-Jul-26 22:33N 36°56' E 012°40'1616.0
2015-Jul-26 21:33N 36°51' E 012°59'1615.9
2015-Jul-26 20:33N 36°46' E 013°18'1615.8
2015-Jul-26 19:33N 36°41' E 013°37'1615.8
2015-Jul-26 18:34N 36°36' E 013°55'1616.1
2015-Jul-26 17:34N 36°31' E 014°14'1615.8
2015-Jul-26 16:33N 36°27' E 014°33'1816.5
2015-Jul-26 15:27N 36°32' E 014°55'1516.3
2015-Jul-26 14:34N 36°35' E 015°13'1616.2
2015-Jul-26 13:33N 36°46' E 015°28'1716.9
2015-Jul-26 12:33N 36°59' E 015°42'4016.8
2015-Jul-26 10:10N 37°30' E 016°14'  
2015-Jul-19 14:31N 44°28' E 012°15'  

Dump ship's entire track history